createdAt,value
2017-12-03T00:00:50.902Z,77.50
2017-12-03T00:03:18.386Z,77.60
2017-12-03T00:05:45.882Z,77.80
2017-12-03T00:08:13.362Z,78.60
2017-12-03T00:10:41.627Z,78.30
2017-12-03T00:13:09.098Z,78.30
2017-12-03T00:15:37.348Z,78.40
2017-12-03T00:18:04.831Z,78.40
2017-12-03T00:20:32.304Z,78.10
2017-12-03T00:23:00.561Z,78.80
2017-12-03T00:25:28.498Z,78.80
2017-12-03T00:27:55.969Z,79.40
2017-12-03T00:30:23.468Z,79.00
2017-12-03T00:32:50.951Z,79.00
2017-12-03T00:35:19.222Z,79.10
2017-12-03T00:37:47.227Z,79.10
2017-12-03T00:40:14.711Z,78.80
2017-12-03T00:42:42.209Z,78.80
2017-12-03T00:45:09.713Z,78.60
2017-12-03T00:47:37.186Z,78.80
2017-12-03T00:50:04.682Z,79.00
2017-12-03T00:52:32.931Z,79.50
2017-12-03T00:55:00.443Z,79.50
2017-12-03T00:57:27.916Z,79.30
2017-12-03T00:59:55.403Z,79.70
2017-12-03T01:02:22.887Z,79.80
2017-12-03T01:04:50.379Z,79.60
2017-12-03T01:07:17.868Z,78.40
2017-12-03T01:09:45.354Z,78.50
2017-12-03T01:12:12.865Z,78.00
2017-12-03T01:17:06.360Z,77.80
2017-12-03T01:19:33.856Z,77.90
2017-12-03T01:22:02.103Z,78.60
2017-12-03T01:24:30.353Z,78.80
2017-12-03T01:29:49.170Z,78.90
2017-12-03T01:32:16.660Z,79.00
2017-12-03T01:34:44.913Z,78.20
2017-12-03T01:37:12.400Z,78.20
2017-12-03T01:39:40.644Z,77.90
2017-12-03T01:42:08.132Z,77.80
2017-12-03T01:44:36.853Z,79.60
2017-12-03T01:47:04.346Z,78.90
2017-12-03T01:49:31.830Z,78.70
2017-12-03T01:51:59.330Z,78.60
2017-12-03T01:54:26.845Z,78.70
2017-12-03T01:56:54.344Z,78.70
2017-12-03T01:59:22.594Z,78.30
2017-12-03T02:01:50.079Z,78.20
2017-12-03T02:04:17.568Z,78.10
2017-12-03T02:06:45.066Z,78.60
2017-12-03T02:09:12.557Z,78.20
2017-12-03T02:11:40.050Z,78.00
2017-12-03T02:14:08.643Z,77.40
2017-12-03T02:16:36.122Z,77.40
2017-12-03T02:19:03.618Z,77.20
2017-12-03T02:21:31.104Z,77.90
2017-12-03T02:23:58.581Z,77.70
2017-12-03T02:26:26.834Z,78.80
2017-12-03T02:28:54.319Z,78.10
2017-12-03T02:31:22.856Z,78.00
2017-12-03T02:33:50.331Z,78.00
2017-12-03T02:36:18.180Z,78.00
2017-12-03T02:38:45.652Z,77.80
2017-12-03T02:41:13.155Z,78.30
2017-12-03T02:43:40.646Z,78.60
2017-12-03T02:46:08.890Z,78.20
2017-12-03T02:48:36.397Z,78.20
2017-12-03T02:51:03.888Z,78.20
2017-12-03T02:53:31.384Z,78.10
2017-12-03T02:55:58.878Z,78.30
2017-12-03T02:58:26.369Z,78.60
2017-12-03T03:00:53.860Z,78.40
2017-12-03T03:03:21.391Z,78.60
2017-12-03T03:05:48.874Z,78.80
2017-12-03T03:08:16.362Z,78.40
2017-12-03T03:10:44.612Z,78.20
2017-12-03T03:13:12.534Z,78.10
2017-12-03T03:15:40.006Z,78.80
2017-12-03T03:18:07.492Z,79.00
2017-12-03T03:20:35.354Z,78.90
2017-12-03T03:23:02.842Z,79.20
2017-12-03T03:25:30.338Z,79.20
2017-12-03T03:27:58.599Z,78.80
2017-12-03T03:30:26.086Z,78.80
2017-12-03T03:32:53.594Z,78.90
2017-12-03T03:35:21.088Z,79.30
2017-12-03T03:37:48.589Z,79.10
2017-12-03T03:40:16.072Z,78.90
2017-12-03T03:42:43.579Z,78.90
2017-12-03T03:45:11.057Z,78.50
2017-12-03T03:47:39.298Z,79.30
2017-12-03T03:50:06.793Z,78.60
2017-12-03T03:52:35.054Z,78.70
2017-12-03T03:55:02.548Z,78.60
2017-12-03T03:57:30.828Z,78.90
2017-12-03T03:59:59.082Z,79.20
2017-12-03T04:02:26.575Z,79.20
2017-12-03T04:04:54.831Z,79.10
2017-12-03T04:07:22.350Z,79.20
2017-12-03T04:09:49.853Z,79.00
2017-12-03T04:12:17.345Z,79.60
2017-12-03T04:14:45.599Z,79.40
2017-12-03T04:17:13.073Z,79.30
2017-12-03T04:19:41.366Z,79.40
2017-12-03T04:22:09.620Z,79.50
2017-12-03T04:24:37.098Z,79.50
2017-12-03T04:27:05.358Z,80.50
2017-12-03T04:29:33.107Z,79.70
2017-12-03T04:32:00.595Z,79.70
2017-12-03T04:34:28.085Z,79.80
2017-12-03T04:36:56.687Z,79.50
2017-12-03T04:39:24.167Z,79.50
2017-12-03T04:41:51.640Z,79.70
2017-12-03T04:44:19.148Z,79.60
2017-12-03T04:46:47.411Z,79.10
2017-12-03T04:49:14.902Z,79.10
2017-12-03T04:51:42.395Z,79.20
2017-12-03T04:54:10.260Z,79.40
2017-12-03T04:56:37.730Z,79.20
2017-12-03T04:59:05.521Z,79.40
2017-12-03T05:01:33.019Z,79.20
2017-12-03T05:04:01.293Z,78.70
2017-12-03T05:06:28.783Z,79.30
2017-12-03T05:08:57.038Z,78.00
2017-12-03T05:11:24.508Z,78.00
2017-12-03T05:13:52.799Z,77.50
2017-12-03T05:16:21.046Z,78.80
2017-12-03T05:18:48.527Z,78.80
2017-12-03T05:21:16.036Z,79.10
2017-12-03T05:23:43.521Z,79.40
2017-12-03T05:26:11.033Z,79.30
2017-12-03T05:28:39.282Z,79.40
2017-12-03T05:31:06.782Z,79.40
2017-12-03T05:33:35.029Z,79.50
2017-12-03T05:36:02.523Z,79.50
2017-12-03T05:38:30.779Z,79.30
2017-12-03T05:40:58.266Z,80.00
2017-12-03T05:43:26.507Z,79.70
2017-12-03T05:45:54.023Z,79.70
2017-12-03T05:48:21.534Z,79.80
2017-12-03T05:50:49.013Z,79.60
2017-12-03T05:53:16.513Z,79.50
2017-12-03T05:55:44.005Z,79.40
2017-12-03T05:58:11.477Z,79.30
2017-12-03T06:00:38.978Z,78.80
2017-12-03T06:03:06.458Z,78.90
2017-12-03T06:05:33.962Z,78.60
2017-12-03T06:08:01.456Z,78.10
2017-12-03T06:10:28.949Z,78.20
2017-12-03T06:12:56.442Z,79.10
2017-12-03T06:15:23.930Z,79.10
2017-12-03T06:17:51.417Z,79.10
2017-12-03T06:20:19.668Z,79.30
2017-12-03T06:22:47.160Z,79.30
2017-12-03T06:25:15.446Z,79.30
2017-12-03T06:27:43.709Z,79.30
2017-12-03T06:30:11.232Z,79.30
2017-12-03T06:32:38.743Z,79.30
2017-12-03T06:35:06.224Z,79.10
2017-12-03T06:37:34.479Z,79.40
2017-12-03T06:40:01.956Z,79.40
2017-12-03T06:42:30.217Z,78.40
2017-12-03T06:44:57.970Z,78.30
2017-12-03T06:47:25.471Z,78.40
2017-12-03T06:49:53.727Z,79.20
2017-12-03T06:52:21.228Z,79.20
2017-12-03T06:54:49.488Z,79.50
2017-12-03T06:57:16.995Z,79.50
2017-12-03T06:59:44.479Z,79.30
2017-12-03T07:02:11.968Z,79.10
2017-12-03T07:04:39.459Z,79.30
2017-12-03T07:07:07.719Z,79.40
2017-12-03T07:09:35.199Z,79.40
2017-12-03T07:12:03.440Z,78.50
2017-12-03T07:14:30.926Z,78.50
2017-12-03T07:16:58.414Z,78.40
2017-12-03T07:19:25.901Z,78.90
2017-12-03T07:21:53.395Z,78.60
2017-12-03T07:24:20.863Z,78.30
2017-12-03T07:26:48.394Z,78.60
2017-12-03T07:29:15.871Z,79.10
2017-12-03T07:31:43.362Z,79.20
2017-12-03T07:34:10.860Z,79.30
2017-12-03T07:36:38.359Z,79.40
2017-12-03T07:39:05.861Z,79.40
2017-12-03T07:41:33.354Z,79.10
2017-12-03T07:44:00.845Z,78.70
2017-12-03T07:46:28.337Z,78.30
2017-12-03T07:48:55.845Z,78.70
2017-12-03T07:51:23.336Z,79.10
2017-12-03T07:53:50.828Z,79.30
2017-12-03T07:56:18.318Z,78.80
2017-12-03T07:58:46.576Z,78.70
2017-12-03T08:01:14.056Z,78.70
2017-12-03T08:03:42.315Z,78.80
2017-12-03T08:06:09.815Z,78.80
2017-12-03T08:08:37.309Z,78.80
2017-12-03T08:11:04.797Z,78.50
2017-12-03T08:13:32.286Z,78.60
2017-12-03T08:16:00.534Z,77.50
2017-12-03T08:18:28.034Z,77.50
2017-12-03T08:20:56.276Z,77.90
2017-12-03T08:23:23.787Z,77.90
2017-12-03T08:25:51.279Z,78.00
2017-12-03T08:28:18.776Z,78.10
2017-12-03T08:30:46.267Z,78.00
2017-12-03T08:33:14.531Z,77.90
2017-12-03T08:35:42.033Z,77.90
2017-12-03T08:38:09.522Z,78.50
2017-12-03T08:40:36.998Z,78.20
2017-12-03T08:43:04.488Z,77.90
2017-12-03T08:45:32.741Z,77.60
2017-12-03T08:48:00.225Z,77.50
2017-12-03T08:50:27.701Z,77.70
2017-12-03T08:52:55.950Z,77.80
2017-12-03T08:55:24.180Z,77.80
2017-12-03T08:57:51.680Z,78.30
2017-12-03T09:00:19.150Z,78.10
2017-12-03T09:02:46.662Z,77.80
2017-12-03T09:05:14.903Z,77.60
2017-12-03T09:07:42.394Z,77.50
2017-12-03T09:10:10.638Z,77.10
2017-12-03T09:12:38.138Z,77.10
2017-12-03T09:15:06.497Z,77.10
2017-12-03T09:17:33.981Z,77.00
2017-12-03T09:20:02.238Z,76.90
2017-12-03T09:22:29.726Z,76.90
2017-12-03T09:24:57.970Z,77.30
2017-12-03T09:27:25.441Z,77.20
2017-12-03T09:29:52.931Z,77.40
2017-12-03T09:32:21.186Z,77.20
2017-12-03T09:34:48.729Z,77.20
2017-12-03T09:37:16.199Z,77.30
2017-12-03T09:39:43.678Z,77.40
2017-12-03T09:42:11.162Z,77.10
2017-12-03T09:44:39.425Z,77.70
2017-12-03T09:47:06.902Z,77.70
2017-12-03T09:49:34.396Z,77.80
2017-12-03T09:52:01.881Z,77.60
2017-12-03T09:54:29.367Z,77.60
2017-12-03T09:56:56.846Z,77.60
2017-12-03T09:59:24.335Z,77.90
2017-12-03T10:01:51.829Z,78.50
2017-12-03T10:04:19.316Z,78.30
2017-12-03T10:06:46.787Z,78.20
2017-12-03T10:09:14.279Z,77.30
2017-12-03T10:11:42.527Z,76.70
2017-12-03T10:14:10.009Z,76.70
2017-12-03T10:16:37.497Z,77.00
2017-12-03T10:19:04.988Z,77.00
2017-12-03T10:21:32.470Z,76.80
2017-12-03T10:23:59.950Z,76.80
2017-12-03T10:26:27.437Z,76.50
2017-12-03T10:28:55.673Z,75.50
2017-12-03T10:31:23.171Z,75.40
2017-12-03T10:33:51.423Z,76.00
2017-12-03T10:36:18.905Z,75.90
2017-12-03T10:38:46.388Z,76.00
2017-12-03T10:41:14.640Z,75.70
2017-12-03T10:43:42.112Z,75.70
2017-12-03T10:46:09.600Z,75.10
2017-12-03T10:48:37.836Z,75.00
2017-12-03T10:51:05.317Z,75.00
2017-12-03T10:53:32.828Z,75.40
2017-12-03T10:56:00.322Z,75.00
2017-12-03T10:58:27.804Z,75.30
2017-12-03T11:00:55.299Z,75.00
2017-12-03T11:03:22.777Z,75.30
2017-12-03T11:05:50.262Z,75.00
2017-12-03T11:08:17.747Z,75.20
2017-12-03T11:10:45.231Z,75.20
2017-12-03T11:13:13.482Z,75.00
2017-12-03T11:15:41.737Z,75.00
2017-12-03T11:18:09.212Z,75.20
2017-12-03T11:20:36.743Z,74.70
2017-12-03T11:23:04.463Z,74.70
2017-12-03T11:25:32.033Z,74.30
2017-12-03T11:27:59.521Z,74.10
2017-12-03T11:30:27.774Z,74.50
2017-12-03T11:32:55.626Z,74.40
2017-12-03T11:35:23.107Z,74.50
2017-12-03T11:37:50.605Z,74.70
2017-12-03T11:40:18.110Z,74.80
2017-12-03T11:42:45.597Z,74.50
2017-12-03T11:45:13.066Z,74.50
2017-12-03T11:47:40.569Z,74.00
2017-12-03T11:50:09.195Z,74.40
2017-12-03T11:52:36.689Z,74.50
2017-12-03T11:55:04.170Z,74.00
2017-12-03T11:57:32.454Z,74.70
2017-12-03T12:00:01.235Z,74.70
2017-12-03T12:02:29.488Z,74.80
2017-12-03T12:04:58.142Z,74.70
2017-12-03T12:07:25.628Z,74.90
2017-12-03T12:09:53.110Z,74.50
2017-12-03T12:12:20.595Z,74.10
2017-12-03T12:14:48.832Z,74.40
2017-12-03T12:17:16.323Z,74.20
2017-12-03T12:19:43.801Z,73.90
2017-12-03T12:22:12.074Z,73.90
2017-12-03T12:24:40.302Z,73.60
2017-12-03T12:27:07.798Z,73.50
2017-12-03T12:29:35.285Z,73.50
2017-12-03T12:32:03.536Z,73.40
2017-12-03T12:34:31.026Z,73.40
2017-12-03T12:36:59.281Z,73.80
2017-12-03T12:39:26.760Z,73.70
2017-12-03T12:41:54.257Z,73.60
2017-12-03T12:44:21.740Z,73.40
2017-12-03T12:46:49.602Z,73.40
2017-12-03T12:49:17.081Z,73.30
2017-12-03T12:51:44.571Z,73.10
2017-12-03T12:54:12.067Z,73.20
2017-12-03T12:56:40.303Z,73.00
2017-12-03T12:59:07.790Z,73.00
2017-12-03T13:01:35.292Z,73.20
2017-12-03T13:04:02.809Z,72.70
2017-12-03T13:06:30.417Z,72.40
2017-12-03T13:08:57.895Z,72.40
2017-12-03T13:11:25.382Z,72.80
2017-12-03T13:13:52.886Z,73.00
2017-12-03T13:16:21.143Z,72.50
2017-12-03T13:18:48.752Z,72.50
2017-12-03T13:21:16.245Z,72.60
2017-12-03T13:23:43.739Z,72.80
2017-12-03T13:26:11.229Z,73.10
2017-12-03T13:28:38.747Z,73.20
2017-12-03T13:31:06.207Z,73.20
2017-12-03T13:33:33.700Z,72.60
2017-12-03T13:36:01.985Z,71.30
2017-12-03T13:38:29.478Z,71.30
2017-12-03T13:40:56.946Z,71.80
2017-12-03T13:43:24.448Z,71.20
2017-12-03T13:45:51.933Z,71.40
2017-12-03T13:48:20.219Z,70.90
2017-12-03T13:50:47.711Z,70.90
2017-12-03T13:53:15.213Z,71.80
2017-12-03T13:55:42.699Z,72.80
2017-12-03T13:58:10.184Z,71.80
2017-12-03T14:00:38.422Z,71.50
2017-12-03T14:03:05.911Z,71.50
2017-12-03T14:05:34.206Z,71.50
2017-12-03T14:08:02.446Z,71.60
2017-12-03T14:10:30.170Z,71.60
2017-12-03T14:12:57.643Z,72.00
2017-12-03T14:15:25.175Z,72.20
2017-12-03T14:17:53.417Z,73.10
2017-12-03T14:20:20.926Z,73.10
2017-12-03T14:22:48.406Z,74.20
2017-12-03T14:25:15.932Z,73.50
2017-12-03T14:27:43.416Z,73.80
2017-12-03T14:30:10.907Z,73.80
2017-12-03T14:32:38.387Z,74.00
2017-12-03T14:35:05.890Z,74.50
2017-12-03T14:37:34.189Z,74.90
2017-12-03T14:40:01.675Z,74.80
2017-12-03T14:42:29.160Z,75.00
2017-12-03T14:44:56.647Z,75.20
2017-12-03T14:47:24.122Z,75.30
2017-12-03T14:49:52.363Z,76.10
2017-12-03T14:52:19.842Z,76.10
2017-12-03T14:54:47.327Z,76.20
2017-12-03T14:57:15.586Z,76.50
2017-12-03T14:59:43.083Z,76.50
2017-12-03T15:02:11.324Z,76.90
2017-12-03T15:04:38.801Z,76.80
2017-12-03T15:07:06.266Z,76.80
2017-12-03T15:09:35.666Z,76.70
2017-12-03T15:12:03.926Z,77.00
2017-12-03T15:14:31.406Z,76.90
2017-12-03T15:16:58.879Z,77.30
2017-12-03T15:19:26.687Z,77.30
2017-12-03T15:21:54.209Z,77.40
2017-12-03T15:24:21.701Z,78.10
2017-12-03T15:26:49.187Z,77.50
2017-12-03T15:29:16.675Z,77.60
2017-12-03T15:31:44.150Z,77.90
2017-12-03T15:34:11.653Z,78.20
2017-12-03T15:36:39.162Z,78.00
2017-12-03T15:39:06.645Z,78.10
2017-12-03T15:41:34.132Z,78.10
2017-12-03T15:44:03.403Z,78.30
2017-12-03T15:46:30.920Z,78.20
2017-12-03T15:48:58.396Z,78.50
2017-12-03T15:51:25.893Z,78.80
2017-12-03T16:11:13.068Z,79.30
2017-12-03T16:13:40.554Z,79.30
2017-12-03T16:33:26.146Z,79.80
2017-12-03T16:35:53.618Z,79.80
2017-12-03T16:38:21.110Z,79.70
2017-12-03T16:40:49.347Z,79.70
2017-12-03T16:43:16.837Z,79.70
2017-12-03T17:03:02.289Z,80.10
2017-12-03T17:22:48.089Z,80.00
2017-12-03T17:25:15.577Z,80.00
2017-12-03T17:27:43.838Z,80.40
2017-12-03T17:30:11.335Z,80.30
2017-12-03T17:32:39.586Z,80.30
2017-12-03T17:52:23.085Z,80.80
2017-12-03T18:12:10.869Z,80.80
2017-12-03T18:14:38.367Z,80.90
2017-12-03T18:17:05.866Z,80.50
2017-12-03T18:19:34.107Z,80.80
2017-12-03T18:22:01.581Z,80.80
2017-12-03T18:24:29.070Z,80.80
2017-12-03T18:26:57.301Z,80.60
2017-12-03T18:29:24.789Z,80.70
2017-12-03T18:31:52.265Z,80.40
2017-12-03T18:34:19.792Z,80.60
2017-12-03T18:36:47.292Z,80.60
2017-12-03T18:39:15.684Z,80.50
2017-12-03T18:41:43.168Z,80.50
2017-12-03T18:44:10.654Z,80.40
2017-12-03T19:03:56.406Z,80.50
2017-12-03T19:23:41.619Z,80.60
2017-12-03T19:26:09.900Z,80.90
2017-12-03T19:28:38.140Z,80.90
2017-12-03T19:48:22.786Z,80.90
2017-12-03T19:50:51.058Z,81.00
2017-12-03T19:53:18.530Z,80.90
2017-12-03T19:55:46.817Z,81.10
2017-12-03T19:58:15.074Z,81.00
2017-12-03T20:00:42.549Z,81.00
2017-12-03T20:20:28.614Z,81.50
2017-12-03T20:22:56.143Z,81.50
2017-12-03T20:25:23.667Z,81.30
2017-12-03T20:27:51.134Z,81.30
2017-12-03T20:30:20.529Z,81.20
2017-12-03T20:32:47.995Z,81.20
2017-12-03T20:35:15.481Z,81.20
2017-12-03T20:37:42.964Z,81.20
2017-12-03T20:57:28.289Z,81.20
2017-12-03T20:59:56.557Z,81.30
2017-12-03T21:02:24.041Z,81.30
2017-12-03T21:04:51.524Z,81.50
2017-12-03T21:07:19.804Z,81.30
2017-12-03T21:09:48.052Z,81.20
2017-12-03T21:12:15.544Z,81.20
2017-12-03T21:32:03.218Z,81.50
2017-12-03T21:34:31.474Z,81.40
2017-12-03T21:54:18.313Z,81.40
2017-12-03T21:56:45.814Z,81.30
2017-12-03T21:59:13.314Z,81.30
2017-12-03T22:01:40.802Z,81.30
2017-12-03T22:21:25.416Z,81.20
2017-12-03T22:23:52.891Z,81.20
2017-12-03T22:26:20.380Z,81.10
2017-12-03T22:28:48.648Z,81.70
2017-12-03T22:31:16.138Z,81.10
2017-12-03T22:33:44.388Z,81.00
2017-12-03T22:36:11.881Z,81.00
2017-12-03T22:38:39.374Z,81.10
2017-12-03T22:58:25.095Z,80.80
2017-12-03T23:00:52.592Z,80.90
2017-12-03T23:03:20.103Z,80.70
2017-12-03T23:05:47.582Z,80.50
2017-12-03T23:08:15.843Z,80.60
2017-12-03T23:10:44.082Z,80.60
2017-12-03T23:13:11.570Z,80.60
2017-12-03T23:15:39.798Z,80.60
2017-12-03T23:18:08.050Z,80.50
2017-12-03T23:37:52.486Z,80.50
2017-12-03T23:40:20.752Z,81.10
2017-12-03T23:42:48.218Z,80.40
2017-12-03T23:45:16.476Z,80.40
2017-12-03T23:47:44.712Z,80.60
2017-12-03T23:50:12.205Z,80.40
2017-12-03T23:52:40.434Z,80.10
2017-12-03T23:55:08.718Z,80.20
2017-12-03T23:57:36.959Z,80.30
